Observations for AMSTERDAM SCHIPHOL, Netherlands (EHAM)

EHAM 280455Z 10009KT 060V120 6000 FEW009 BKN021 17/16 Q0996 BECMG 8000  
EHAM 280425Z 09010KT 6000 FEW008 BKN029 17/16 Q0996 TEMPO BKN007
EHAM 280355Z 09010KT 6000 SCT007 BKN027 17/16 Q0997 TEMPO BKN007
EHAM 280325Z 09010KT 060V120 7000 BKN007 BKN031 17/16 Q0997 NOSIG   
EHAM 280255Z 08012KT 7000 BKN007 17/16 Q0997 NOSIG  
EHAM 280225Z 08013KT 7000 BKN007 17/16 Q0998 NOSIG  
EHAM 280155Z 07016KT 040V100 7000 SCT007 17/16 Q0998 BECMG BKN008   
EHAM 280125Z 07012KT 7000 BKN007 17/16 Q0999 NOSIG  
EHAM 280055Z 06014KT 030V090 7000 SCT007 BKN044 17/16 Q0999 BECMG BKN008
EHAM 280025Z 06014KT 030V090 7000 FEW007 SCT033 BKN045 17/16 Q1000 BECMG BKN008 
EHAM 272355Z 05012KT 7000 -SHRA SCT007 BKN030 17/16 Q1000 BECMG 9999 NSW
EHAM 272325Z 06012KT 8000 -SHRA FEW007 BKN030 FEW036CB 17/16 Q1001 BECMG NSW
EHAM 272255Z 07014KT 7000 -SHRA FEW010 SCT032 SCT040CB 17/15 Q1002 BECMG 9999 NSW   
EHAM 272225Z 07013KT 9999 OVC036 17/15 Q1002 TEMPO 6000 -SHRA SCT040CB  
EHAM 272155Z 07011KT 040V100 9999 OVC037 17/15 Q1002 TEMPO 6000 -SHRA SCT040CB  
EHAM 272125Z 07010KT 9999 -RA BKN039 17/14 Q1003 NOSIG  
EHAM 272055Z 07012KT 030V090 9999 -RA FEW038 SCT045 18/14 Q1003 NOSIG   
EHAM 272025Z 06013KT 030V100 9999 FEW040 19/13 Q1003 NOSIG  
EHAM 271955Z 07011KT 040V100 9999 FEW040 19/13 Q1004 NOSIG  
EHAM 271925Z 08010KT 9999 FEW038 19/13 Q1004 NOSIG  
EHAM 271855Z 07010KT 030V090 CAVOK 19/13 Q1004 NOSIG
EHAM 271825Z 07009KT 040V100 9999 -RA FEW033 19/13 Q1004 NOSIG  
EHAM 271755Z 07008KT 9999 -RA FEW040 19/13 Q1005 NOSIG  
EHAM 271725Z 10009KT 060V130 9999 -RA NSC 19/14 Q1005 NOSIG 
EHAM 271655Z 10010KT 070V130 9999 VCSH NSC 21/12 Q1005 NOSIG
EHAM 271625Z 13011KT 100V160 CAVOK 21/13 Q1006 NOSIG
EHAM 271555Z 10010KT 070V140 CAVOK 22/12 Q1006 NOSIG
EHAM 271525Z 08008KT 060V130 CAVOK 22/13 Q1006 NOSIG
EHAM 271455Z 10008KT 060V140 CAVOK 22/13 Q1007 NOSIG
EHAM 271425Z 08009KT 040V120 CAVOK 22/13 Q1007 NOSIG
EHAM 271355Z 05010KT 010V080 CAVOK 21/14 Q1007 NOSIG
EHAM 271325Z 06009KT 030V090 CAVOK 21/13 Q1007 NOSIG
EHAM 271255Z 06009KT 020V100 CAVOK 21/13 Q1008 NOSIG
EHAM 271225Z 06009KT 010V120 CAVOK 22/12 Q1008 NOSIG
EHAM 271155Z 07010KT 040V100 CAVOK 22/13 Q1008 NOSIG
EHAM 271125Z 08011KT 020V110 CAVOK 20/12 Q1009 NOSIG
EHAM 271055Z 07011KT 030V110 CAVOK 20/12 Q1009 NOSIG
EHAM 271025Z 06011KT 030V100 CAVOK 19/12 Q1009 NOSIG
EHAM 270955Z 05011KT 030V090 CAVOK 19/11 Q1010 NOSIG
EHAM 270925Z 07010KT 030V100 CAVOK 19/11 Q1010 NOSIG
EHAM 270855Z 08011KT 040V110 CAVOK 18/10 Q1010 NOSIG
EHAM 270825Z 08012KT 050V110 CAVOK 17/10 Q1011 NOSIG
EHAM 270755Z 06010KT 030V090 CAVOK 17/10 Q1011 NOSIG
EHAM 270725Z 07010KT 040V100 CAVOK 16/09 Q1011 NOSIG
EHAM 270655Z 08011KT 050V110 CAVOK 15/10 Q1011 NOSIG
EHAM 270625Z 08009KT 040V110 CAVOK 14/09 Q1011 NOSIG
EHAM 270555Z 08012KT CAVOK 14/09 Q1011 NOSIG
EHAM 270525Z 08010KT CAVOK 14/09 Q1011 NOSIG
EHAM 270455Z 08010KT CAVOK 13/09 Q1011 NOSIG
EHAM 270425Z 08008KT 050V120 CAVOK 13/09 Q1012 NOSIG